createdAt,value
2022-10-22T00:00:17.185Z,95931.72
2022-10-22T00:02:44.633Z,95939.00
2022-10-22T00:05:11.802Z,95933.97
2022-10-22T00:07:38.919Z,95932.66
2022-10-22T00:10:08.172Z,95935.34
2022-10-22T00:12:35.282Z,95935.94
2022-10-22T00:15:02.769Z,95935.00
2022-10-22T00:17:29.525Z,95934.41
2022-10-22T00:19:56.329Z,95934.03
2022-10-22T00:22:23.114Z,95936.28
2022-10-22T00:24:49.941Z,95945.84
2022-10-22T00:27:16.861Z,95930.50
2022-10-22T00:29:43.755Z,95919.31
2022-10-22T00:32:10.652Z,95914.16
2022-10-22T00:34:37.507Z,95920.31
2022-10-22T00:37:04.465Z,95908.50
2022-10-22T00:39:31.233Z,95916.44
2022-10-22T00:41:58.500Z,95905.94
2022-10-22T00:45:02.336Z,95920.66
2022-10-22T00:47:36.564Z,95924.88
2022-10-22T00:50:06.738Z,95926.72
2022-10-22T00:52:33.812Z,95922.94
2022-10-22T00:55:01.646Z,95922.94
2022-10-22T00:57:29.099Z,95916.66
2022-10-22T00:59:57.402Z,95913.81
2022-10-22T01:02:24.374Z,95907.28
2022-10-22T01:04:51.244Z,95905.75
2022-10-22T01:07:20.406Z,95896.31
2022-10-22T01:10:10.859Z,95886.84
2022-10-22T01:13:07.080Z,95885.09
2022-10-22T01:16:00.374Z,95882.50
2022-10-22T01:18:42.060Z,95889.28
2022-10-22T01:21:11.961Z,95887.66
2022-10-22T01:23:57.559Z,95873.59
2022-10-22T01:29:21.601Z,95869.19
2022-10-22T01:32:02.875Z,95870.38
2022-10-22T01:34:31.973Z,95865.56
2022-10-22T01:37:00.543Z,95867.91
2022-10-22T01:39:29.552Z,95864.03
2022-10-22T01:41:57.375Z,95859.00
2022-10-22T01:44:28.631Z,95849.88
2022-10-22T01:47:05.164Z,95851.84
2022-10-22T01:50:04.588Z,95856.31
2022-10-22T01:52:42.828Z,95865.50
2022-10-22T01:55:20.457Z,95858.63
2022-10-22T01:58:22.662Z,95863.19
2022-10-22T02:01:19.183Z,95854.50
2022-10-22T02:04:05.552Z,95866.81
2022-10-22T02:06:34.047Z,95877.09
2022-10-22T02:09:02.701Z,95862.72
2022-10-22T02:11:30.075Z,95859.66
2022-10-22T02:14:00.406Z,95862.81
2022-10-22T02:16:49.528Z,95855.31
2022-10-22T02:19:23.659Z,95852.03
2022-10-22T02:21:50.701Z,95844.91
2022-10-22T02:24:18.692Z,95843.28
2022-10-22T02:27:04.180Z,95850.16
2022-10-22T02:29:35.170Z,95861.38
2022-10-22T02:32:06.028Z,95860.16
2022-10-22T02:34:33.428Z,95847.06
2022-10-22T02:37:02.804Z,95864.34
2022-10-22T02:39:31.610Z,95862.69
2022-10-22T02:41:58.531Z,95866.19
2022-10-22T02:44:25.309Z,95884.88
2022-10-22T02:46:52.336Z,95868.06
2022-10-22T02:49:19.201Z,95875.03
2022-10-22T02:51:46.044Z,95880.88
2022-10-22T02:54:12.920Z,95877.28
2022-10-22T02:56:39.884Z,95871.34
2022-10-22T02:59:06.763Z,95860.13
2022-10-22T03:01:33.755Z,95862.09
2022-10-22T03:04:00.646Z,95860.44
2022-10-22T03:06:27.533Z,95868.56
2022-10-22T03:08:56.011Z,95873.56
2022-10-22T03:11:22.881Z,95866.56
2022-10-22T03:13:49.660Z,95863.66
2022-10-22T03:16:16.454Z,95868.09
2022-10-22T03:18:43.319Z,95864.69
2022-10-22T03:21:13.135Z,95871.59
2022-10-22T03:23:43.960Z,95859.19
2022-10-22T03:26:13.710Z,95862.47
2022-10-22T03:28:42.591Z,95862.47
2022-10-22T03:31:10.805Z,95864.34
2022-10-22T03:33:37.587Z,95861.06
2022-10-22T03:36:04.742Z,95851.00
2022-10-22T03:38:31.772Z,95849.78
2022-10-22T03:40:59.041Z,95857.16
2022-10-22T03:43:28.575Z,95842.59
2022-10-22T03:45:57.489Z,95852.84
2022-10-22T03:48:24.383Z,95851.81
2022-10-22T03:50:51.306Z,95863.13
2022-10-22T03:53:18.171Z,95851.22
2022-10-22T03:55:44.976Z,95849.56
2022-10-22T03:58:11.884Z,95858.22
2022-10-22T04:00:38.686Z,95861.50
2022-10-22T04:03:05.544Z,95845.59
2022-10-22T04:05:34.001Z,95845.88
2022-10-22T04:08:01.123Z,95846.78
2022-10-22T04:10:27.902Z,95855.44
2022-10-22T04:12:54.735Z,95858.91
2022-10-22T04:15:21.627Z,95847.72
2022-10-22T04:17:48.442Z,95835.81
2022-10-22T04:20:15.282Z,95838.75
2022-10-22T04:22:42.239Z,95843.56
2022-10-22T04:25:09.495Z,95842.28
2022-10-22T04:27:36.965Z,95839.84
2022-10-22T04:30:05.202Z,95829.13
2022-10-22T04:32:32.022Z,95843.47
2022-10-22T04:34:58.813Z,95849.09
2022-10-22T04:37:25.662Z,95846.97
2022-10-22T04:39:52.452Z,95841.03
2022-10-22T04:42:19.239Z,95844.41
2022-10-22T04:44:46.581Z,95845.81
2022-10-22T04:47:13.445Z,95840.47
2022-10-22T04:49:40.600Z,95836.63
2022-10-22T04:52:07.569Z,95843.50
2022-10-22T04:54:34.429Z,95856.97
2022-10-22T04:57:01.423Z,95855.66
2022-10-22T04:59:28.281Z,95867.59
2022-10-22T05:01:55.144Z,95857.53
2022-10-22T05:04:21.950Z,95857.63
2022-10-22T05:06:48.823Z,95863.59
2022-10-22T05:09:18.841Z,95881.59
2022-10-22T05:11:51.402Z,95884.88
2022-10-22T05:14:23.999Z,95891.16
2022-10-22T05:16:52.160Z,95887.66
2022-10-22T05:19:24.278Z,95873.41
2022-10-22T05:21:52.997Z,95875.63
2022-10-22T05:24:21.010Z,95880.41
2022-10-22T05:26:52.746Z,95881.34
2022-10-22T05:29:20.075Z,95865.91
2022-10-22T05:31:47.014Z,95887.97
2022-10-22T05:34:13.944Z,95887.16
2022-10-22T05:36:41.912Z,95885.78
2022-10-22T05:39:08.768Z,95878.75
2022-10-22T05:41:36.581Z,95880.78
2022-10-22T05:44:04.273Z,95888.88
2022-10-22T05:46:35.569Z,95879.28
2022-10-22T05:49:05.090Z,95887.44
2022-10-22T05:51:32.957Z,95894.00
2022-10-22T05:54:02.115Z,95881.63
2022-10-22T05:56:32.164Z,95884.47
2022-10-22T05:58:59.507Z,95869.97
2022-10-22T06:01:35.266Z,95874.53
2022-10-22T06:04:05.227Z,95887.88
2022-10-22T06:06:35.325Z,95894.28
2022-10-22T06:09:10.399Z,95888.22
2022-10-22T06:11:37.351Z,95876.28
2022-10-22T06:14:04.782Z,95893.16
2022-10-22T06:16:32.191Z,95882.38
2022-10-22T06:19:02.219Z,95885.19
2022-10-22T06:21:30.234Z,95893.59
2022-10-22T06:23:58.131Z,95885.16
2022-10-22T06:26:25.552Z,95883.72
2022-10-22T06:28:53.106Z,95886.72
2022-10-22T06:31:20.014Z,95884.25
2022-10-22T06:33:46.861Z,95893.16
2022-10-22T06:36:19.592Z,95898.25
2022-10-22T06:38:46.579Z,95900.22
2022-10-22T06:41:18.559Z,95886.47
2022-10-22T06:43:47.077Z,95883.00
2022-10-22T06:46:19.179Z,95886.34
2022-10-22T06:48:55.433Z,95885.72
2022-10-22T06:51:22.611Z,95876.09
2022-10-22T06:53:49.499Z,95888.66
2022-10-22T06:56:19.308Z,95894.63
2022-10-22T06:58:51.049Z,95893.75
2022-10-22T07:01:20.705Z,95897.19
2022-10-22T07:03:49.947Z,95897.72
2022-10-22T07:06:16.872Z,95895.16
2022-10-22T07:08:44.142Z,95885.84
2022-10-22T07:11:19.828Z,95879.78
2022-10-22T07:13:47.684Z,95874.91
2022-10-22T07:16:15.320Z,95873.72
2022-10-22T07:18:42.881Z,95880.94
2022-10-22T07:21:11.694Z,95884.19
2022-10-22T07:23:39.189Z,95884.63
2022-10-22T07:26:08.721Z,95883.69
2022-10-22T07:28:38.973Z,95880.16
2022-10-22T07:31:06.741Z,95881.97
2022-10-22T07:33:33.678Z,95879.91
2022-10-22T07:36:02.231Z,95880.44
2022-10-22T07:38:31.740Z,95875.28
2022-10-22T07:41:02.630Z,95866.28
2022-10-22T07:43:29.956Z,95871.03
2022-10-22T07:45:56.821Z,95862.13
2022-10-22T07:48:24.013Z,95856.81
2022-10-22T07:50:52.266Z,95850.88
2022-10-22T07:53:19.867Z,95856.03
2022-10-22T07:55:53.151Z,95848.56
2022-10-22T07:58:21.491Z,95859.28
2022-10-22T08:00:48.858Z,95848.66
2022-10-22T08:03:17.149Z,95855.50
2022-10-22T08:05:44.629Z,95846.91
2022-10-22T08:08:13.131Z,95834.59
2022-10-22T08:10:40.183Z,95833.75
2022-10-22T08:13:08.320Z,95826.38
2022-10-22T08:15:35.332Z,95838.63
2022-10-22T08:18:02.548Z,95838.94
2022-10-22T08:20:30.613Z,95836.00
2022-10-22T08:22:58.254Z,95820.97
2022-10-22T08:25:25.673Z,95818.25
2022-10-22T08:27:52.546Z,95821.06
2022-10-22T08:30:20.256Z,95826.75
2022-10-22T08:32:49.310Z,95818.50
2022-10-22T08:35:18.492Z,95818.38
2022-10-22T08:37:45.519Z,95817.44
2022-10-22T08:40:23.350Z,95825.25
2022-10-22T08:43:10.551Z,95813.22
2022-10-22T08:46:07.927Z,95823.78
2022-10-22T08:48:40.552Z,95818.50
2022-10-22T08:51:15.463Z,95815.25
2022-10-22T08:54:08.828Z,95819.47
2022-10-22T08:56:37.225Z,95821.59
2022-10-22T08:59:15.002Z,95820.91
2022-10-22T09:01:51.784Z,95823.13
2022-10-22T09:04:49.047Z,95812.63
2022-10-22T09:07:16.119Z,95807.34
2022-10-22T09:09:49.315Z,95804.56
2022-10-22T09:12:25.758Z,95806.91
2022-10-22T09:14:54.982Z,95787.66
2022-10-22T09:17:35.573Z,95786.50
2022-10-22T09:20:26.976Z,95806.47
2022-10-22T09:23:31.762Z,95755.84
2022-10-22T09:26:00.103Z,95778.41
2022-10-22T09:28:26.984Z,95780.84
2022-10-22T09:30:53.940Z,95753.44
2022-10-22T09:33:28.257Z,95780.47
2022-10-22T09:35:58.586Z,95782.03
2022-10-22T09:38:34.433Z,95783.72
2022-10-22T09:41:04.196Z,95766.00
2022-10-22T09:43:32.206Z,95765.63
2022-10-22T09:46:04.817Z,95770.78
2022-10-22T09:48:39.619Z,95758.63
2022-10-22T09:51:15.075Z,95755.56
2022-10-22T09:53:44.684Z,95767.03
2022-10-22T09:56:41.891Z,95760.63
2022-10-22T09:59:26.050Z,95763.22
2022-10-22T10:02:13.599Z,95754.88
2022-10-22T10:04:51.584Z,95745.03
2022-10-22T10:07:21.094Z,95741.25
2022-10-22T10:09:48.670Z,95731.16
2022-10-22T10:12:34.107Z,95747.22
2022-10-22T10:15:28.536Z,95746.34
2022-10-22T10:18:09.765Z,95735.75
2022-10-22T10:21:08.521Z,95726.75
2022-10-22T10:23:47.241Z,95728.63
2022-10-22T10:26:43.467Z,95720.50
2022-10-22T10:32:24.431Z,95722.59
2022-10-22T10:35:15.944Z,95712.13
2022-10-22T10:38:27.289Z,95696.56
2022-10-22T10:41:26.482Z,95699.72
2022-10-22T10:43:59.269Z,95692.88
2022-10-22T10:46:50.756Z,95691.19
2022-10-22T10:49:21.406Z,95683.97
2022-10-22T10:51:59.723Z,95680.59
2022-10-22T10:57:35.035Z,95664.66
2022-10-22T11:00:27.927Z,95656.25
2022-10-22T11:02:58.818Z,95653.25
2022-10-22T11:05:28.655Z,95651.41
2022-10-22T11:08:06.492Z,95646.19
2022-10-22T11:10:41.116Z,95643.13
2022-10-22T11:13:58.194Z,95628.00
2022-10-22T11:16:31.114Z,95621.06
2022-10-22T11:19:49.615Z,95613.44
2022-10-22T11:22:26.985Z,95608.59
2022-10-22T11:25:02.963Z,95604.09
2022-10-22T11:27:40.655Z,95609.16
2022-10-22T11:30:16.789Z,95598.56
2022-10-22T11:32:50.010Z,95570.06
2022-10-22T11:35:25.791Z,95585.44
2022-10-22T11:37:56.801Z,95576.94
2022-10-22T11:40:29.313Z,95587.00
2022-10-22T11:43:05.397Z,95585.84
2022-10-22T11:45:37.877Z,95564.94
2022-10-22T11:48:19.171Z,95577.47
2022-10-22T11:50:56.755Z,95575.38
2022-10-22T11:53:32.294Z,95574.63
2022-10-22T11:56:23.419Z,95561.72
2022-10-22T11:58:53.949Z,95573.81
2022-10-22T12:01:25.085Z,95572.00
2022-10-22T12:03:54.132Z,95576.53
2022-10-22T12:06:24.429Z,95558.72
2022-10-22T12:08:57.443Z,95570.75
2022-10-22T12:11:41.487Z,95561.13
2022-10-22T12:14:29.765Z,95555.84
2022-10-22T12:17:09.970Z,95550.91
2022-10-22T12:19:45.856Z,95543.88
2022-10-22T12:22:12.777Z,95549.09
2022-10-22T12:24:46.892Z,95546.22
2022-10-22T12:27:38.668Z,95543.38
2022-10-22T12:30:21.503Z,95534.28
2022-10-22T12:32:48.467Z,95529.91
2022-10-22T12:35:18.535Z,95533.03
2022-10-22T12:37:49.180Z,95531.22
2022-10-22T12:40:23.320Z,95532.09
2022-10-22T12:42:57.293Z,95523.66
2022-10-22T12:45:28.139Z,95524.09
2022-10-22T12:48:04.866Z,95518.34
2022-10-22T12:50:38.305Z,95520.44
2022-10-22T12:53:17.044Z,95515.91
2022-10-22T12:55:51.503Z,95514.47
2022-10-22T12:58:25.418Z,95509.94
2022-10-22T13:00:58.556Z,95506.16
2022-10-22T13:03:33.308Z,95509.13
2022-10-22T13:06:34.038Z,95505.47
2022-10-22T13:09:27.841Z,95511.31
2022-10-22T13:12:01.841Z,95501.72
2022-10-22T13:14:33.570Z,95501.16
2022-10-22T13:17:42.397Z,95505.84
2022-10-22T13:20:23.507Z,95489.03
2022-10-22T13:23:02.844Z,95486.88
2022-10-22T13:25:35.178Z,95492.72
2022-10-22T13:28:20.369Z,95481.00
2022-10-22T13:30:59.532Z,95479.84
2022-10-22T13:33:42.233Z,95479.47
2022-10-22T13:36:16.322Z,95475.91
2022-10-22T13:38:44.761Z,95485.59
2022-10-22T13:41:25.279Z,95481.22
2022-10-22T13:43:53.542Z,95484.84
2022-10-22T13:46:21.609Z,95487.28
2022-10-22T13:48:50.877Z,95485.97
2022-10-22T13:51:20.663Z,95477.41
2022-10-22T13:53:49.716Z,95480.78
2022-10-22T13:56:19.640Z,95493.84
2022-10-22T13:58:47.787Z,95491.38
2022-10-22T14:01:26.591Z,95483.69
2022-10-22T14:03:54.716Z,95483.81
2022-10-22T14:06:22.799Z,95478.19
2022-10-22T14:08:55.246Z,95481.03
2022-10-22T14:11:22.282Z,95481.78
2022-10-22T14:13:49.135Z,95479.38
2022-10-22T14:16:21.906Z,95477.84
2022-10-22T14:18:49.394Z,95471.31
2022-10-22T14:21:17.967Z,95471.56
2022-10-22T14:23:47.068Z,95450.69
2022-10-22T14:26:40.624Z,95463.56
2022-10-22T14:29:09.871Z,95457.31
2022-10-22T14:34:27.463Z,95465.91
2022-10-22T14:36:54.772Z,95466.03
2022-10-22T14:39:21.856Z,95467.66
2022-10-22T14:41:48.721Z,95460.53
2022-10-22T14:44:15.625Z,95462.34
2022-10-22T14:46:44.407Z,95463.38
2022-10-22T14:49:11.681Z,95461.53
2022-10-22T14:51:39.732Z,95458.97
2022-10-22T14:54:07.164Z,95459.16
2022-10-22T14:56:34.120Z,95476.56
2022-10-22T14:59:01.068Z,95474.50
2022-10-22T15:01:27.873Z,95464.22
2022-10-22T15:03:54.916Z,95470.72
2022-10-22T15:06:21.739Z,95467.44
2022-10-22T15:08:48.681Z,95477.44
2022-10-22T15:11:16.407Z,95472.88
2022-10-22T15:13:44.053Z,95470.00
2022-10-22T15:16:13.203Z,95483.19
2022-10-22T15:18:40.058Z,95474.34
2022-10-22T15:21:14.429Z,95473.00
2022-10-22T15:23:41.431Z,95466.78
2022-10-22T15:26:09.681Z,95470.00
2022-10-22T15:28:38.184Z,95475.69
2022-10-22T15:31:05.522Z,95471.88
2022-10-22T15:33:32.417Z,95474.72
2022-10-22T15:35:59.698Z,95464.00
2022-10-22T15:41:16.616Z,95482.97
2022-10-22T15:43:43.465Z,95486.97
2022-10-22T15:46:16.638Z,95479.09
2022-10-22T15:48:43.776Z,95484.31
2022-10-22T15:51:13.100Z,95487.53
2022-10-22T15:53:40.512Z,95489.94
2022-10-22T15:56:07.954Z,95485.63
2022-10-22T15:58:34.975Z,95503.84
2022-10-22T16:01:11.047Z,95494.91
2022-10-22T16:03:38.233Z,95517.25
2022-10-22T16:06:07.498Z,95521.41
2022-10-22T16:08:35.008Z,95514.91
2022-10-22T16:11:02.010Z,95521.78
2022-10-22T16:13:28.918Z,95514.19
2022-10-22T16:15:55.928Z,95528.00
2022-10-22T16:18:23.820Z,95532.34
2022-10-22T16:20:50.742Z,95534.69
2022-10-22T16:23:19.172Z,95528.19
2022-10-22T16:25:46.838Z,95526.84
2022-10-22T16:28:14.364Z,95535.63
2022-10-22T16:30:41.885Z,95529.94
2022-10-22T16:33:10.116Z,95523.44
2022-10-22T16:35:41.563Z,95525.34
2022-10-22T16:38:10.422Z,95524.63
2022-10-22T16:40:37.362Z,95519.50
2022-10-22T16:43:04.248Z,95515.47
2022-10-22T16:45:31.215Z,95527.28
2022-10-22T16:47:58.267Z,95513.94
2022-10-22T16:50:25.053Z,95522.75
2022-10-22T16:52:51.971Z,95517.44
2022-10-22T16:55:18.894Z,95514.47
2022-10-22T16:57:51.849Z,95505.84
2022-10-22T17:00:20.518Z,95506.53
2022-10-22T17:02:52.749Z,95507.06
2022-10-22T17:05:19.977Z,95512.19
2022-10-22T17:07:46.860Z,95512.78
2022-10-22T17:10:13.818Z,95517.56
2022-10-22T17:12:41.526Z,95498.53
2022-10-22T17:15:08.951Z,95502.41
2022-10-22T17:17:35.875Z,95499.00
2022-10-22T17:20:02.809Z,95501.16
2022-10-22T17:22:29.733Z,95521.72
2022-10-22T17:25:16.280Z,95523.34
2022-10-22T17:27:44.349Z,95521.63
2022-10-22T17:30:24.796Z,95517.56
2022-10-22T17:32:55.023Z,95514.03
2022-10-22T17:35:21.923Z,95516.63
2022-10-22T17:37:48.876Z,95516.28
2022-10-22T17:40:15.925Z,95518.34
2022-10-22T17:42:43.180Z,95522.44
2022-10-22T17:45:14.411Z,95524.56
2022-10-22T17:50:48.207Z,95527.28
2022-10-22T17:53:17.944Z,95523.91
2022-10-22T17:55:46.955Z,95526.34
2022-10-22T17:58:13.704Z,95525.91
2022-10-22T18:00:40.577Z,95532.91
2022-10-22T18:03:10.953Z,95533.53
2022-10-22T18:05:37.767Z,95518.13
2022-10-22T18:08:07.780Z,95527.88
2022-10-22T18:10:40.108Z,95527.38
2022-10-22T18:13:09.769Z,95518.47
2022-10-22T18:15:36.706Z,95523.19
2022-10-22T18:18:04.549Z,95534.94
2022-10-22T18:20:32.921Z,95531.72
2022-10-22T18:23:00.938Z,95538.25
2022-10-22T18:25:27.841Z,95524.47
2022-10-22T18:27:54.748Z,95537.97
2022-10-22T18:30:21.502Z,95538.03
2022-10-22T18:32:48.336Z,95540.34
2022-10-22T18:35:15.238Z,95538.22
2022-10-22T18:37:42.834Z,95537.75
2022-10-22T18:40:14.731Z,95537.09
2022-10-22T18:42:47.648Z,95524.47
2022-10-22T18:45:14.564Z,95537.13
2022-10-22T18:47:41.863Z,95549.00
2022-10-22T18:50:09.507Z,95547.56
2022-10-22T18:52:36.409Z,95566.06
2022-10-22T18:55:03.595Z,95575.16
2022-10-22T18:57:30.700Z,95567.88
2022-10-22T19:00:00.093Z,95573.91
2022-10-22T19:02:27.171Z,95566.41
2022-10-22T19:04:54.074Z,95575.84
2022-10-22T19:07:20.830Z,95573.88
2022-10-22T19:09:47.750Z,95581.34
2022-10-22T19:12:15.972Z,95586.69
2022-10-22T19:14:43.007Z,95576.66
2022-10-22T19:17:09.853Z,95584.75
2022-10-22T19:19:36.824Z,95591.56
2022-10-22T19:22:04.807Z,95588.31
2022-10-22T19:24:31.786Z,95587.50
2022-10-22T19:27:01.185Z,95590.59
2022-10-22T19:29:28.269Z,95594.81
2022-10-22T19:31:55.718Z,95590.75
2022-10-22T19:34:22.673Z,95587.81
2022-10-22T19:36:51.894Z,95586.53
2022-10-22T19:39:19.038Z,95579.69
2022-10-22T19:41:45.996Z,95568.31
2022-10-22T19:44:12.826Z,95567.56
2022-10-22T19:46:39.615Z,95560.44
2022-10-22T19:49:06.642Z,95573.50
2022-10-22T19:51:34.632Z,95558.41
2022-10-22T19:54:08.094Z,95568.66
2022-10-22T19:56:37.784Z,95563.59
2022-10-22T19:59:08.243Z,95566.03
2022-10-22T20:01:35.205Z,95563.09
2022-10-22T20:04:02.207Z,95560.50
2022-10-22T20:06:30.032Z,95558.56
2022-10-22T20:08:57.359Z,95560.69
2022-10-22T20:11:30.045Z,95566.66
2022-10-22T20:13:58.026Z,95562.88
2022-10-22T20:16:30.019Z,95568.38
2022-10-22T20:19:02.162Z,95563.66
2022-10-22T20:21:29.416Z,95560.09
2022-10-22T20:23:57.529Z,95567.88
2022-10-22T20:26:28.250Z,95571.59
2022-10-22T20:28:57.201Z,95571.75
2022-10-22T20:31:27.201Z,95560.72
2022-10-22T20:33:56.698Z,95567.84
2022-10-22T20:36:24.485Z,95571.75
2022-10-22T20:38:51.769Z,95567.47
2022-10-22T20:41:23.147Z,95571.03
2022-10-22T20:43:51.645Z,95558.22
2022-10-22T20:46:22.545Z,95556.72
2022-10-22T20:48:55.483Z,95568.75
2022-10-22T20:51:22.744Z,95562.22
2022-10-22T20:53:49.791Z,95560.91
2022-10-22T20:56:18.068Z,95562.84
2022-10-22T20:58:48.728Z,95563.50
2022-10-22T21:01:24.481Z,95566.75
2022-10-22T21:03:52.703Z,95562.16
2022-10-22T21:06:23.514Z,95570.69
2022-10-22T21:08:51.754Z,95572.16
2022-10-22T21:11:19.616Z,95565.63
2022-10-22T21:13:46.709Z,95577.13
2022-10-22T21:16:15.243Z,95579.00
2022-10-22T21:18:42.037Z,95585.63
2022-10-22T21:21:09.539Z,95585.50
2022-10-22T21:23:37.076Z,95576.91
2022-10-22T21:26:04.928Z,95571.41
2022-10-22T21:28:35.566Z,95569.78
2022-10-22T21:31:05.027Z,95562.22
2022-10-22T21:33:35.020Z,95559.63
2022-10-22T21:36:01.887Z,95553.31
2022-10-22T21:38:28.786Z,95562.22
2022-10-22T21:40:55.668Z,95563.41
2022-10-22T21:43:22.449Z,95569.09
2022-10-22T21:45:49.277Z,95561.63
2022-10-22T21:48:16.171Z,95558.22
2022-10-22T21:50:44.299Z,95549.31
2022-10-22T21:53:12.284Z,95550.88
2022-10-22T21:55:42.200Z,95556.38
2022-10-22T21:58:09.222Z,95567.41
2022-10-22T22:00:36.396Z,95565.09
2022-10-22T22:03:06.035Z,95561.53
2022-10-22T22:05:32.864Z,95572.72
2022-10-22T22:07:59.803Z,95573.88
2022-10-22T22:10:26.821Z,95570.28
2022-10-22T22:12:53.659Z,95564.63
2022-10-22T22:15:20.819Z,95576.28
2022-10-22T22:17:47.711Z,95569.47
2022-10-22T22:20:14.621Z,95568.69
2022-10-22T22:22:41.797Z,95556.03
2022-10-22T22:25:09.101Z,95557.97
2022-10-22T22:27:36.013Z,95561.13
2022-10-22T22:30:03.675Z,95551.88
2022-10-22T22:32:31.561Z,95559.31
2022-10-22T22:34:58.498Z,95561.03
2022-10-22T22:37:27.447Z,95545.72
2022-10-22T22:39:54.552Z,95549.25
2022-10-22T22:42:21.396Z,95550.78
2022-10-22T22:44:48.228Z,95562.94
2022-10-22T22:47:15.115Z,95553.69
2022-10-22T22:49:41.893Z,95553.69
2022-10-22T22:52:09.940Z,95551.09
2022-10-22T22:54:36.845Z,95549.47
2022-10-22T22:57:03.723Z,95545.38
2022-10-22T22:59:30.567Z,95567.53
2022-10-22T23:01:57.703Z,95567.53
2022-10-22T23:04:25.341Z,95553.78
2022-10-22T23:06:52.789Z,95549.84
2022-10-22T23:12:07.827Z,95552.72
2022-10-22T23:14:34.667Z,95542.50
2022-10-22T23:17:01.504Z,95553.25
2022-10-22T23:19:28.333Z,95555.16
2022-10-22T23:21:56.337Z,95564.28
2022-10-22T23:24:26.400Z,95570.94
2022-10-22T23:26:54.724Z,95569.44
2022-10-22T23:29:24.856Z,95566.19
2022-10-22T23:31:52.555Z,95557.09
2022-10-22T23:34:22.258Z,95562.25
2022-10-22T23:36:49.986Z,95572.25
2022-10-22T23:39:20.687Z,95570.47
2022-10-22T23:41:47.469Z,95581.47
2022-10-22T23:44:14.415Z,95581.97
2022-10-22T23:46:41.908Z,95594.75
2022-10-22T23:49:10.083Z,95593.94
2022-10-22T23:51:38.135Z,95582.78
2022-10-22T23:54:11.324Z,95584.66
2022-10-22T23:56:38.288Z,95563.03
2022-10-22T23:59:05.688Z,95567.72
